Time;durP1;ratioP1;P1;durP2;ratioP2;P2;SDS_P1;SDS_P2;PMS_P1;PMS_P2;Temp;Humidity;BMP_temperature;BMP_pressure;BME280_temperature;BME280_humidity;BME280_pressure;Samples;Min_cycle;Max_cycle;Signal;HPM_P1;HPM_P2
2023/07/20 00:01:05;;;;;;;2.22;1.65;;;;;;;;;;5052506;28;20029;-76
2023/07/20 00:03:31;;;;;;;3.55;2.22;;;;;;;;;;5043208;28;20037;-76
2023/07/20 00:05:56;;;;;;;2.35;2.15;;;;;;;;;;5062878;28;20129;-77
2023/07/20 00:08:22;;;;;;;4.00;2.70;;;;;;;;;;5058690;28;20186;-76
2023/07/20 00:10:47;;;;;;;1.67;1.58;;;;;;;;;;5048023;28;20108;-77
2023/07/20 00:13:12;;;;;;;1.48;1.38;;;;;;;;;;5042994;28;20041;-76
2023/07/20 00:15:38;;;;;;;1.35;1.10;;;;;;;;;;5044763;28;20040;-76
2023/07/20 00:18:04;;;;;;;1.40;1.30;;;;;;;;;;5031172;28;20037;-76
2023/07/20 00:20:29;;;;;;;0.90;0.90;;;;;;;;;;5044908;28;20143;-76
2023/07/20 00:22:57;;;;;;;3.90;2.65;;;;;;;;;;5042024;28;20532;-76
2023/07/20 00:25:23;;;;;;;1.25;1.10;;;;;;;;;;5047631;28;20397;-76
2023/07/20 00:27:48;;;;;;;2.63;2.33;;;;;;;;;;5064573;28;20030;-77
2023/07/20 00:30:14;;;;;;;2.15;1.92;;;;;;;;;;5058565;28;20135;-77
2023/07/20 00:32:39;;;;;;;2.63;2.42;;;;;;;;;;5040952;28;20041;-76
2023/07/20 00:35:05;;;;;;;4.03;3.67;;;;;;;;;;5058397;28;20092;-77
2023/07/20 00:37:31;;;;;;;2.50;2.30;;;;;;;;;;5035715;28;20032;-76
2023/07/20 00:39:56;;;;;;;2.22;1.50;;;;;;;;;;5047031;28;20033;-77
2023/07/20 00:42:21;;;;;;;1.63;1.20;;;;;;;;;;5044035;28;20060;-77
2023/07/20 00:44:47;;;;;;;2.00;1.85;;;;;;;;;;5033751;28;20621;-78
2023/07/20 00:47:12;;;;;;;1.05;1.00;;;;;;;;;;5034438;28;20041;-77
2023/07/20 00:49:38;;;;;;;3.75;2.72;;;;;;;;;;5042010;28;20044;-77
2023/07/20 00:52:07;;;;;;;1.80;1.70;;;;;;;;;;5039018;28;20044;-77
2023/07/20 00:54:33;;;;;;;2.42;2.10;;;;;;;;;;5046341;28;20033;-76
2023/07/20 00:57:00;;;;;;;1.75;1.50;;;;;;;;;;5041408;28;20033;-77
2023/07/20 00:59:26;;;;;;;2.53;2.33;;;;;;;;;;5032768;28;20036;-76
2023/07/20 01:01:51;;;;;;;2.90;2.00;;;;;;;;;;5041915;28;20044;-76
2023/07/20 01:04:17;;;;;;;3.28;2.05;;;;;;;;;;5050988;28;20037;-76
2023/07/20 01:07:21;;;;;;;3.53;3.22;;;;;;;;;;5059484;28;20032;-76
2023/07/20 01:10:05;;;;;;;5.20;4.15;;;;;;;;;;5022287;28;20489;-76
2023/07/20 01:12:54;;;;;;;4.85;3.70;;;;;;;;;;5010568;28;20062;-76
2023/07/20 01:15:20;;;;;;;3.08;2.80;;;;;;;;;;5024956;28;20048;-76
2023/07/20 01:17:46;;;;;;;3.65;3.17;;;;;;;;;;5053476;28;20039;-76
2023/07/20 01:20:15;;;;;;;4.30;3.75;;;;;;;;;;5044255;28;20504;-75
2023/07/20 01:23:13;;;;;;;3.35;3.05;;;;;;;;;;5030666;28;20501;-75
2023/07/20 01:26:13;;;;;;;3.17;2.70;;;;;;;;;;4974033;28;20973;-76
2023/07/20 01:29:23;;;;;;;3.35;2.00;;;;;;;;;;5047479;28;20032;-75
2023/07/20 01:31:52;;;;;;;2.55;2.35;;;;;;;;;;4982057;28;20046;-75
2023/07/20 01:34:19;;;;;;;5.90;3.90;;;;;;;;;;5040816;28;20082;-75
2023/07/20 01:36:46;;;;;;;2.55;2.35;;;;;;;;;;5047587;28;20049;-76
2023/07/20 01:39:11;;;;;;;2.88;2.30;;;;;;;;;;5050977;28;20037;-76
2023/07/20 01:41:37;;;;;;;2.47;2.10;;;;;;;;;;5055492;28;20035;-76
2023/07/20 01:44:04;;;;;;;1.50;1.40;;;;;;;;;;5041207;28;20055;-75
2023/07/20 01:46:29;;;;;;;3.25;1.77;;;;;;;;;;5035821;28;20052;-75
2023/07/20 01:48:55;;;;;;;2.10;1.52;;;;;;;;;;5048071;28;20496;-76
2023/07/20 01:51:20;;;;;;;1.95;1.30;;;;;;;;;;5047355;28;20136;-76
2023/07/20 01:53:46;;;;;;;1.50;1.40;;;;;;;;;;5042321;28;20083;-75
2023/07/20 01:56:12;;;;;;;1.65;1.10;;;;;;;;;;5039947;28;20052;-75
2023/07/20 01:58:37;;;;;;;2.15;1.55;;;;;;;;;;5024563;28;20032;-76
2023/07/20 02:01:03;;;;;;;1.20;1.10;;;;;;;;;;5042629;28;20063;-76
2023/07/20 02:03:28;;;;;;;1.73;1.40;;;;;;;;;;5038738;28;20057;-76
2023/07/20 02:05:54;;;;;;;1.33;1.20;;;;;;;;;;5025081;28;20036;-76
2023/07/20 02:08:19;;;;;;;2.03;1.30;;;;;;;;;;5040670;28;20044;-75
2023/07/20 02:10:47;;;;;;;1.17;1.10;;;;;;;;;;5045029;28;20033;-76
2023/07/20 02:13:13;;;;;;;1.30;1.20;;;;;;;;;;5033226;28;21411;-76
2023/07/20 02:15:38;;;;;;;1.20;1.00;;;;;;;;;;5041543;28;20088;-75
2023/07/20 02:18:04;;;;;;;2.83;1.52;;;;;;;;;;5040120;28;20037;-76
2023/07/20 02:20:29;;;;;;;1.13;1.10;;;;;;;;;;5043572;28;20546;-75
2023/07/20 02:22:55;;;;;;;1.48;1.10;;;;;;;;;;5044288;28;20043;-76
2023/07/20 02:25:21;;;;;;;1.67;1.40;;;;;;;;;;5032734;28;20056;-75
2023/07/20 02:27:46;;;;;;;2.25;1.75;;;;;;;;;;5038540;28;20666;-77
2023/07/20 02:30:12;;;;;;;2.10;1.90;;;;;;;;;;5024739;28;20521;-74
2023/07/20 02:32:38;;;;;;;1.33;1.25;;;;;;;;;;5049387;28;20048;-77
2023/07/20 02:35:03;;;;;;;1.50;1.08;;;;;;;;;;5052493;28;20029;-77
2023/07/20 02:37:29;;;;;;;1.65;1.55;;;;;;;;;;5057783;28;20556;-77
2023/07/20 02:39:55;;;;;;;2.05;1.20;;;;;;;;;;5036029;28;20036;-76
2023/07/20 02:42:22;;;;;;;1.40;1.23;;;;;;;;;;5053586;28;20056;-75
2023/07/20 02:44:48;;;;;;;1.38;1.27;;;;;;;;;;5046965;28;20120;-75
2023/07/20 02:47:13;;;;;;;2.22;0.98;;;;;;;;;;5047604;28;20128;-76
2023/07/20 02:49:38;;;;;;;1.70;1.60;;;;;;;;;;5040181;28;20032;-76
2023/07/20 02:52:04;;;;;;;2.03;1.23;;;;;;;;;;5035569;28;20576;-74
2023/07/20 02:54:30;;;;;;;1.98;1.70;;;;;;;;;;5039508;28;20073;-75
2023/07/20 02:56:56;;;;;;;2.22;1.75;;;;;;;;;;5019272;28;20048;-75
2023/07/20 02:59:21;;;;;;;1.70;1.60;;;;;;;;;;5041624;28;20040;-75
2023/07/20 03:01:47;;;;;;;1.30;0.95;;;;;;;;;;5042836;28;20107;-74
2023/07/20 03:04:12;;;;;;;4.10;2.13;;;;;;;;;;5046240;28;20039;-75
2023/07/20 03:06:37;;;;;;;1.88;1.77;;;;;;;;;;5042921;28;20051;-76
2023/07/20 03:09:03;;;;;;;1.70;1.55;;;;;;;;;;5027563;28;20094;-75
2023/07/20 03:11:29;;;;;;;5.47;2.00;;;;;;;;;;5044449;28;20119;-75
2023/07/20 03:13:54;;;;;;;1.60;1.50;;;;;;;;;;5046407;28;20448;-75
2023/07/20 03:16:20;;;;;;;2.47;2.25;;;;;;;;;;5045687;28;20048;-75
2023/07/20 03:18:45;;;;;;;2.20;2.00;;;;;;;;;;5055598;28;20071;-75
2023/07/20 03:21:11;;;;;;;2.78;1.98;;;;;;;;;;5047775;28;20040;-74
2023/07/20 03:23:37;;;;;;;3.33;2.38;;;;;;;;;;5032291;28;20053;-75
2023/07/20 03:26:03;;;;;;;2.58;2.38;;;;;;;;;;5035323;28;20070;-74
2023/07/20 03:28:28;;;;;;;2.38;2.00;;;;;;;;;;5049129;28;20389;-74
2023/07/20 03:30:57;;;;;;;3.05;1.15;;;;;;;;;;5042562;28;20425;-76
2023/07/20 03:33:26;;;;;;;1.15;1.05;;;;;;;;;;5045000;28;20033;-76
2023/07/20 03:35:51;;;;;;;1.13;1.00;;;;;;;;;;5030612;28;20040;-75
2023/07/20 03:38:16;;;;;;;1.25;1.15;;;;;;;;;;5044976;28;20040;-76
2023/07/20 03:40:58;;;;;;;1.80;1.60;;;;;;;;;;5053817;28;20048;-74
2023/07/20 03:43:25;;;;;;;1.77;1.65;;;;;;;;;;5042099;28;20047;-75
2023/07/20 03:45:51;;;;;;;1.35;1.15;;;;;;;;;;5046435;28;20163;-74
2023/07/20 03:48:18;;;;;;;1.00;0.80;;;;;;;;;;5016196;28;20174;-74
2023/07/20 03:50:48;;;;;;;0.93;0.93;;;;;;;;;;5044603;28;20033;-76
2023/07/20 03:53:14;;;;;;;4.40;2.30;;;;;;;;;;5038802;28;20102;-76
2023/07/20 03:55:41;;;;;;;1.20;0.85;;;;;;;;;;5047230;28;20056;-76
2023/07/20 03:58:09;;;;;;;2.20;1.83;;;;;;;;;;5038900;28;20068;-75
2023/07/20 04:00:34;;;;;;;2.78;2.58;;;;;;;;;;5030978;28;20044;-75
2023/07/20 04:03:00;;;;;;;3.58;2.38;;;;;;;;;;5028537;28;20078;-74
2023/07/20 04:05:26;;;;;;;4.35;2.58;;;;;;;;;;5044390;28;20086;-75
2023/07/20 04:07:51;;;;;;;1.05;1.02;;;;;;;;;;5045900;28;20040;-75
2023/07/20 04:10:17;;;;;;;1.90;1.50;;;;;;;;;;5053726;22;20079;-75
2023/07/20 04:12:43;;;;;;;2.03;1.55;;;;;;;;;;5033730;28;20041;-75
2023/07/20 04:15:09;;;;;;;2.08;1.88;;;;;;;;;;5025655;28;20067;-75
2023/07/20 04:17:34;;;;;;;2.40;2.20;;;;;;;;;;5035860;28;20037;-76
2023/07/20 04:20:01;;;;;;;1.40;1.30;;;;;;;;;;5034508;28;20618;-75
2023/07/20 04:22:27;;;;;;;2.17;1.70;;;;;;;;;;5036920;28;20481;-75
2023/07/20 04:24:52;;;;;;;2.17;1.88;;;;;;;;;;5020652;28;20061;-75
2023/07/20 04:27:18;;;;;;;2.53;1.00;;;;;;;;;;5035792;28;20140;-75
2023/07/20 04:29:43;;;;;;;1.80;0.90;;;;;;;;;;5026262;28;20106;-76
2023/07/20 04:32:08;;;;;;;1.00;1.00;;;;;;;;;;5038303;28;20041;-76
2023/07/20 04:34:37;;;;;;;1.30;1.20;;;;;;;;;;5036973;28;20043;-75
2023/07/20 04:37:03;;;;;;;1.52;1.42;;;;;;;;;;5036167;28;20033;-76
2023/07/20 04:39:28;;;;;;;1.50;0.98;;;;;;;;;;5034908;28;20022;-76
2023/07/20 04:41:54;;;;;;;0.95;0.85;;;;;;;;;;5025331;28;20024;-76
2023/07/20 04:44:19;;;;;;;1.73;1.63;;;;;;;;;;5026641;28;20117;-76
2023/07/20 04:46:44;;;;;;;2.42;2.22;;;;;;;;;;5025439;28;20025;-76
2023/07/20 04:49:12;;;;;;;2.88;2.05;;;;;;;;;;5040470;28;20037;-76
2023/07/20 04:51:38;;;;;;;1.63;1.52;;;;;;;;;;5029802;28;20023;-76
2023/07/20 04:54:03;;;;;;;1.10;1.00;;;;;;;;;;5025737;28;20029;-75
2023/07/20 04:56:29;;;;;;;1.13;0.90;;;;;;;;;;5027095;28;20053;-76
2023/07/20 04:58:54;;;;;;;4.10;1.63;;;;;;;;;;5028973;28;20473;-75
2023/07/20 05:01:20;;;;;;;1.10;1.00;;;;;;;;;;5025951;28;20492;-76
2023/07/20 05:03:45;;;;;;;1.10;1.00;;;;;;;;;;5026570;28;20638;-76
2023/07/20 05:06:10;;;;;;;2.13;1.92;;;;;;;;;;5026752;28;20029;-76
2023/07/20 05:08:36;;;;;;;0.75;0.75;;;;;;;;;;5027311;28;20017;-76
2023/07/20 05:11:01;;;;;;;1.52;1.42;;;;;;;;;;5028081;28;20489;-77
2023/07/20 05:13:27;;;;;;;2.65;2.45;;;;;;;;;;5028421;28;20025;-77
2023/07/20 05:15:53;;;;;;;4.35;1.90;;;;;;;;;;5026898;28;20444;-76
2023/07/20 05:18:20;;;;;;;2.28;1.10;;;;;;;;;;5025964;28;20044;-76
2023/07/20 05:20:48;;;;;;;3.92;2.55;;;;;;;;;;5026441;28;20013;-76
2023/07/20 05:23:14;;;;;;;0.80;0.80;;;;;;;;;;5026130;28;20112;-77
2023/07/20 05:25:40;;;;;;;1.35;1.23;;;;;;;;;;5026356;28;20109;-76
2023/07/20 05:28:06;;;;;;;1.25;1.10;;;;;;;;;;5021801;28;20049;-77
2023/07/20 05:30:31;;;;;;;2.08;1.92;;;;;;;;;;5026712;28;20500;-76
2023/07/20 05:32:57;;;;;;;2.88;2.47;;;;;;;;;;5026726;28;20018;-76
2023/07/20 05:35:23;;;;;;;2.70;2.13;;;;;;;;;;5027229;28;20541;-76
2023/07/20 05:37:48;;;;;;;0.90;0.90;;;;;;;;;;5027328;28;20474;-77
2023/07/20 05:40:18;;;;;;;3.78;2.33;;;;;;;;;;5026738;28;20032;-77
2023/07/20 05:42:45;;;;;;;4.05;3.13;;;;;;;;;;5025439;28;20108;-76
2023/07/20 05:45:10;;;;;;;1.80;1.20;;;;;;;;;;5029152;28;20145;-77
2023/07/20 05:47:35;;;;;;;2.88;2.55;;;;;;;;;;5027725;28;20553;-76
2023/07/20 05:50:01;;;;;;;2.17;2.05;;;;;;;;;;5025230;28;20021;-77
2023/07/20 05:52:28;;;;;;;1.52;1.42;;;;;;;;;;5026791;28;20021;-76
2023/07/20 05:54:54;;;;;;;4.82;2.25;;;;;;;;;;5026245;28;20025;-77
2023/07/20 05:57:19;;;;;;;2.30;2.10;;;;;;;;;;5026737;28;20036;-76
2023/07/20 05:59:44;;;;;;;2.58;2.38;;;;;;;;;;5027333;28;20082;-77
2023/07/20 06:02:11;;;;;;;2.67;2.47;;;;;;;;;;5027304;28;20021;-77
2023/07/20 06:04:36;;;;;;;4.18;3.00;;;;;;;;;;5027300;28;20079;-77
2023/07/20 06:07:02;;;;;;;3.38;2.88;;;;;;;;;;5029170;28;20025;-77
2023/07/20 06:09:27;;;;;;;1.20;1.17;;;;;;;;;;5025390;28;20033;-76
2023/07/20 06:11:53;;;;;;;5.75;3.22;;;;;;;;;;5026774;28;20500;-77
2023/07/20 06:14:18;;;;;;;4.05;3.60;;;;;;;;;;5026828;28;20030;-77
2023/07/20 06:16:44;;;;;;;4.15;3.65;;;;;;;;;;5027106;28;20477;-76
2023/07/20 06:19:11;;;;;;;3.83;3.25;;;;;;;;;;5026067;28;20087;-77
2023/07/20 06:21:37;;;;;;;3.13;2.53;;;;;;;;;;5022174;28;20021;-76
2023/07/20 06:24:03;;;;;;;6.53;4.45;;;;;;;;;;5023397;28;20167;-77
2023/07/20 06:26:29;;;;;;;2.53;1.80;;;;;;;;;;5022188;28;20116;-77
2023/07/20 06:28:55;;;;;;;6.43;4.65;;;;;;;;;;5020289;28;20700;-76
2023/07/20 06:31:21;;;;;;;1.40;1.30;;;;;;;;;;5024004;28;20140;-76
2023/07/20 06:33:46;;;;;;;2.03;1.42;;;;;;;;;;5025224;28;20048;-76
2023/07/20 06:36:11;;;;;;;5.80;4.00;;;;;;;;;;5025759;28;20070;-77
2023/07/20 06:38:37;;;;;;;2.30;1.80;;;;;;;;;;5026314;28;20040;-76
2023/07/20 06:41:02;;;;;;;5.53;4.35;;;;;;;;;;5041141;28;20376;-77
2023/07/20 06:43:28;;;;;;;4.15;3.75;;;;;;;;;;5025071;28;20552;-77
2023/07/20 06:45:53;;;;;;;6.35;5.07;;;;;;;;;;5023424;28;20049;-77
2023/07/20 06:48:19;;;;;;;3.55;3.10;;;;;;;;;;5018113;28;20039;-77
2023/07/20 06:50:44;;;;;;;6.68;5.05;;;;;;;;;;5021495;28;20013;-78
2023/07/20 06:53:10;;;;;;;5.35;4.80;;;;;;;;;;5022299;28;20067;-77
2023/07/20 06:55:35;;;;;;;4.50;3.45;;;;;;;;;;5022110;28;20013;-77
2023/07/20 06:58:01;;;;;;;6.38;4.95;;;;;;;;;;5022650;28;20052;-77
2023/07/20 07:00:26;;;;;;;3.53;3.20;;;;;;;;;;5040243;28;20026;-76
2023/07/20 07:02:51;;;;;;;2.75;2.38;;;;;;;;;;5025770;28;20028;-76
2023/07/20 07:05:18;;;;;;;4.65;4.25;;;;;;;;;;5023582;28;20094;-77
2023/07/20 07:07:43;;;;;;;2.80;1.92;;;;;;;;;;5024110;28;20018;-77
2023/07/20 07:10:09;;;;;;;1.10;0.90;;;;;;;;;;5022719;28;20040;-77
2023/07/20 07:12:35;;;;;;;2.92;2.53;;;;;;;;;;5022883;28;20403;-77
2023/07/20 07:15:01;;;;;;;5.60;5.07;;;;;;;;;;5023304;28;20048;-76
2023/07/20 07:17:27;;;;;;;2.53;1.75;;;;;;;;;;5022594;28;20041;-77
2023/07/20 07:19:56;;;;;;;3.70;2.47;;;;;;;;;;5022420;28;20021;-76
2023/07/20 07:22:21;;;;;;;4.70;3.58;;;;;;;;;;5022843;28;20029;-76
2023/07/20 07:24:47;;;;;;;1.98;1.48;;;;;;;;;;5024471;28;20572;-76
2023/07/20 07:27:12;;;;;;;6.78;5.20;;;;;;;;;;5023338;28;20051;-76
2023/07/20 07:29:38;;;;;;;4.57;4.05;;;;;;;;;;5025382;28;20057;-76
2023/07/20 07:32:03;;;;;;;3.72;2.80;;;;;;;;;;5024354;28;20030;-76
2023/07/20 07:34:29;;;;;;;5.28;3.65;;;;;;;;;;5020790;28;20156;-76
2023/07/20 07:36:54;;;;;;;4.55;3.67;;;;;;;;;;5023080;28;20029;-77
2023/07/20 07:39:20;;;;;;;3.92;2.80;;;;;;;;;;5024320;28;20021;-78
2023/07/20 07:41:45;;;;;;;2.47;2.28;;;;;;;;;;5022978;28;20021;-76
2023/07/20 07:44:11;;;;;;;4.85;2.90;;;;;;;;;;5016256;28;20037;-77
2023/07/20 07:46:37;;;;;;;1.65;1.55;;;;;;;;;;5018869;28;20087;-76
2023/07/20 07:49:02;;;;;;;1.95;1.33;;;;;;;;;;5026072;28;20517;-76
2023/07/20 07:51:28;;;;;;;1.10;1.10;;;;;;;;;;5023713;28;20037;-76
2023/07/20 07:53:53;;;;;;;2.85;2.65;;;;;;;;;;5022981;28;20025;-77
2023/07/20 07:56:22;;;;;;;7.10;3.97;;;;;;;;;;5021750;28;20113;-77
2023/07/20 07:58:49;;;;;;;2.22;1.73;;;;;;;;;;5028524;28;20112;-77
2023/07/20 08:01:14;;;;;;;3.47;2.97;;;;;;;;;;5027842;28;21029;-77
2023/07/20 08:03:40;;;;;;;3.58;3.00;;;;;;;;;;5026753;28;20029;-77
2023/07/20 08:06:05;;;;;;;1.27;1.17;;;;;;;;;;5028299;28;20018;-77
2023/07/20 08:08:32;;;;;;;1.50;1.20;;;;;;;;;;5025040;28;20076;-77
2023/07/20 08:10:58;;;;;;;3.85;2.50;;;;;;;;;;5025948;28;20049;-76
2023/07/20 08:13:23;;;;;;;1.80;1.63;;;;;;;;;;5026961;28;20052;-76
2023/07/20 08:15:51;;;;;;;1.98;1.77;;;;;;;;;;5027098;28;20044;-77
2023/07/20 08:18:17;;;;;;;1.73;1.40;;;;;;;;;;5027336;28;20109;-77
2023/07/20 08:20:46;;;;;;;3.40;1.35;;;;;;;;;;5026362;28;20112;-77
2023/07/20 08:23:12;;;;;;;1.00;1.00;;;;;;;;;;5024918;28;20633;-77
2023/07/20 08:25:41;;;;;;;2.22;2.03;;;;;;;;;;5028232;28;20052;-76
2023/07/20 08:28:07;;;;;;;1.80;1.70;;;;;;;;;;5029481;28;20593;-77
2023/07/20 08:30:43;;;;;;;1.00;1.00;;;;;;;;;;5028892;28;20029;-77
2023/07/20 08:33:10;;;;;;;1.20;1.10;;;;;;;;;;5027661;28;20030;-75
2023/07/20 08:35:35;;;;;;;1.15;1.08;;;;;;;;;;5028031;28;20033;-76
2023/07/20 08:38:01;;;;;;;1.65;1.20;;;;;;;;;;5023094;28;20430;-76
2023/07/20 08:40:27;;;;;;;1.35;1.20;;;;;;;;;;5041902;28;20124;-77
2023/07/20 08:42:54;;;;;;;1.52;1.00;;;;;;;;;;5019344;28;20067;-77
2023/07/20 08:45:22;;;;;;;1.08;1.00;;;;;;;;;;5028620;28;20071;-78
2023/07/20 08:47:49;;;;;;;1.38;1.27;;;;;;;;;;5028807;28;20029;-78
2023/07/20 08:50:15;;;;;;;1.10;1.00;;;;;;;;;;5027645;28;20112;-78
2023/07/20 08:52:40;;;;;;;1.50;1.40;;;;;;;;;;5029491;28;20112;-76
2023/07/20 08:55:06;;;;;;;1.35;1.15;;;;;;;;;;5035370;28;20084;-75
2023/07/20 08:57:33;;;;;;;2.05;1.65;;;;;;;;;;5026227;28;20029;-77
2023/07/20 09:00:04;;;;;;;2.22;1.27;;;;;;;;;;5027810;28;20100;-76
2023/07/20 09:02:30;;;;;;;;;;;;;;;;;;5026611;28;20806;-77
2023/07/20 09:04:55;;;;;;;1.33;1.20;;;;;;;;;;5026627;28;19913;-76
2023/07/20 09:07:21;;;;;;;1.35;1.25;;;;;;;;;;5027063;28;20481;-77
2023/07/20 09:09:47;;;;;;;0.88;0.88;;;;;;;;;;5026355;28;20033;-77
2023/07/20 09:12:18;;;;;;;0.80;0.80;;;;;;;;;;5028663;28;20038;-77
2023/07/20 09:14:44;;;;;;;1.35;1.25;;;;;;;;;;5025914;28;20532;-76
2023/07/20 09:17:14;;;;;;;1.63;1.20;;;;;;;;;;5026834;28;20033;-77
2023/07/20 09:19:47;;;;;;;1.27;1.17;;;;;;;;;;5021744;28;20022;-77
2023/07/20 09:22:12;;;;;;;0.80;0.80;;;;;;;;;;5022997;28;20270;-76
2023/07/20 09:24:38;;;;;;;1.00;1.00;;;;;;;;;;5028078;28;20028;-76
2023/07/20 09:27:04;;;;;;;0.80;0.80;;;;;;;;;;5026560;28;20018;-77
2023/07/20 09:29:30;;;;;;;0.63;0.63;;;;;;;;;;5026303;28;20025;-76
2023/07/20 09:32:03;;;;;;;0.75;0.57;;;;;;;;;;5026067;28;20053;-76
2023/07/20 09:34:31;;;;;;;0.50;0.50;;;;;;;;;;5025613;28;20021;-76
2023/07/20 09:36:57;;;;;;;0.55;0.55;;;;;;;;;;5024015;28;20562;-76
2023/07/20 09:39:23;;;;;;;0.80;0.80;;;;;;;;;;5024237;28;20120;-77
2023/07/20 09:41:48;;;;;;;0.70;0.70;;;;;;;;;;5027708;28;20017;-76
2023/07/20 09:44:15;;;;;;;0.77;0.77;;;;;;;;;;5025457;28;20025;-77
2023/07/20 09:46:44;;;;;;;0.50;0.50;;;;;;;;;;5026025;28;20104;-76
2023/07/20 09:49:10;;;;;;;0.88;0.88;;;;;;;;;;5024965;28;20116;-77
2023/07/20 09:51:36;;;;;;;0.52;0.52;;;;;;;;;;5027413;28;20130;-76
2023/07/20 09:54:04;;;;;;;0.47;0.40;;;;;;;;;;5025331;28;20036;-77
2023/07/20 09:56:30;;;;;;;1.23;0.85;;;;;;;;;;5025796;28;20052;-76
2023/07/20 09:58:56;;;;;;;0.57;0.57;;;;;;;;;;5024525;28;20100;-76
2023/07/20 10:01:22;;;;;;;0.75;0.75;;;;;;;;;;5025827;28;20052;-76
2023/07/20 10:03:53;;;;;;;0.80;0.68;;;;;;;;;;5026471;28;20017;-76
2023/07/20 10:06:22;;;;;;;;;;;;;;;;;;5025490;28;20029;-76
2023/07/20 10:08:52;;;;;;;0.88;0.70;;;;;;;;;;5043087;28;19913;-76
2023/07/20 10:11:18;;;;;;;0.50;0.50;;;;;;;;;;5025479;28;20064;-76
2023/07/20 10:13:46;;;;;;;0.50;0.47;;;;;;;;;;5027522;28;20460;-75
2023/07/20 10:16:34;;;;;;;0.68;0.50;;;;;;;;;;5027493;28;20037;-75
2023/07/20 10:19:23;;;;;;;0.75;0.75;;;;;;;;;;5024977;28;20052;-77
2023/07/20 10:21:56;;;;;;;0.40;0.40;;;;;;;;;;5025981;28;20013;-77
2023/07/20 10:24:23;;;;;;;0.60;0.60;;;;;;;;;;5027456;28;20029;-77
2023/07/20 10:26:49;;;;;;;0.47;0.47;;;;;;;;;;5027589;28;20025;-76
2023/07/20 10:29:15;;;;;;;0.55;0.40;;;;;;;;;;5026729;28;20036;-76
2023/07/20 10:31:40;;;;;;;0.40;0.40;;;;;;;;;;5026808;28;20040;-76
2023/07/20 10:34:06;;;;;;;1.25;0.60;;;;;;;;;;5042742;28;20030;-77
2023/07/20 10:36:32;;;;;;;0.47;0.47;;;;;;;;;;5027527;28;20037;-77
2023/07/20 10:38:58;;;;;;;1.50;0.50;;;;;;;;;;5027716;28;20029;-76
2023/07/20 10:41:42;;;;;;;1.05;0.65;;;;;;;;;;5027158;28;20056;-76
2023/07/20 10:44:09;;;;;;;0.82;0.47;;;;;;;;;;5026782;28;20026;-75
2023/07/20 10:46:43;;;;;;;1.58;0.60;;;;;;;;;;5027859;28;20501;-76
2023/07/20 10:49:10;;;;;;;0.30;0.30;;;;;;;;;;5028047;28;20567;-76
2023/07/20 10:51:42;;;;;;;0.47;0.47;;;;;;;;;;5026091;28;20067;-76
2023/07/20 10:54:28;;;;;;;0.90;0.60;;;;;;;;;;5040209;28;20029;-76
2023/07/20 10:56:56;;;;;;;0.70;0.70;;;;;;;;;;5017932;28;20372;-76
2023/07/20 10:59:24;;;;;;;1.10;0.43;;;;;;;;;;5026122;28;20021;-75
2023/07/20 11:01:50;;;;;;;0.73;0.73;;;;;;;;;;5027630;28;20036;-76
2023/07/20 11:04:18;;;;;;;0.22;0.22;;;;;;;;;;5025454;28;20555;-77
2023/07/20 11:06:44;;;;;;;0.52;0.52;;;;;;;;;;5028248;28;20028;-77
2023/07/20 11:09:14;;;;;;;0.60;0.60;;;;;;;;;;5027853;28;20040;-77
2023/07/20 11:11:44;;;;;;;0.50;0.50;;;;;;;;;;5027928;28;20052;-76
2023/07/20 11:14:20;;;;;;;0.40;0.30;;;;;;;;;;5028465;28;20040;-77
2023/07/20 11:16:47;;;;;;;0.30;0.30;;;;;;;;;;5026637;28;20018;-76
2023/07/20 11:19:24;;;;;;;0.38;0.38;;;;;;;;;;5027745;28;20037;-77
2023/07/20 11:21:52;;;;;;;0.75;0.63;;;;;;;;;;5028309;28;20017;-78
2023/07/20 11:24:18;;;;;;;0.63;0.50;;;;;;;;;;5027095;28;20033;-77
2023/07/20 11:26:45;;;;;;;0.40;0.40;;;;;;;;;;5028728;28;20140;-75
2023/07/20 11:29:12;;;;;;;0.40;0.38;;;;;;;;;;5027276;28;20022;-78
2023/07/20 11:31:39;;;;;;;0.50;0.50;;;;;;;;;;5028423;28;20029;-77
2023/07/20 11:34:05;;;;;;;0.40;0.40;;;;;;;;;;5030928;28;20033;-77
2023/07/20 11:36:31;;;;;;;1.00;0.77;;;;;;;;;;5032523;28;20034;-76
2023/07/20 11:38:57;;;;;;;0.40;0.40;;;;;;;;;;5028351;28;20021;-76
2023/07/20 11:41:22;;;;;;;0.40;0.40;;;;;;;;;;5021179;28;20057;-76
2023/07/20 11:43:48;;;;;;;0.50;0.50;;;;;;;;;;5031574;28;20029;-77
2023/07/20 11:46:13;;;;;;;0.45;0.45;;;;;;;;;;5013584;28;20033;-78
2023/07/20 11:48:39;;;;;;;0.98;0.50;;;;;;;;;;5047407;28;20091;-78
2023/07/20 11:51:05;;;;;;;0.40;0.40;;;;;;;;;;5031883;28;20095;-78
2023/07/20 11:53:33;;;;;;;0.73;0.40;;;;;;;;;;5033269;28;20032;-77
2023/07/20 11:55:59;;;;;;;0.40;0.40;;;;;;;;;;5030300;28;20033;-77
2023/07/20 11:58:24;;;;;;;0.57;0.40;;;;;;;;;;5027175;28;20180;-78
2023/07/20 12:00:49;;;;;;;0.30;0.30;;;;;;;;;;5029835;28;20509;-77
2023/07/20 12:03:15;;;;;;;0.50;0.50;;;;;;;;;;5034896;28;20489;-77
2023/07/20 12:05:40;;;;;;;0.55;0.50;;;;;;;;;;5032496;28;20036;-76
2023/07/20 12:08:06;;;;;;;0.77;0.40;;;;;;;;;;5033026;28;20494;-76
2023/07/20 12:10:31;;;;;;;0.30;0.30;;;;;;;;;;5031549;28;20060;-77
2023/07/20 12:13:07;;;;;;;0.25;0.25;;;;;;;;;;5032698;28;20104;-77
2023/07/20 12:15:32;;;;;;;0.50;0.40;;;;;;;;;;5048081;28;20034;-77
2023/07/20 12:18:00;;;;;;;0.30;0.30;;;;;;;;;;5032888;28;20060;-77
2023/07/20 12:20:36;;;;;;;0.30;0.30;;;;;;;;;;5032077;28;20036;-77
2023/07/20 12:23:12;;;;;;;0.40;0.40;;;;;;;;;;5032319;28;20059;-76
2023/07/20 12:25:40;;;;;;;0.38;0.38;;;;;;;;;;5031475;28;20100;-76
2023/07/20 12:28:19;;;;;;;0.30;0.30;;;;;;;;;;5029852;28;20100;-76
2023/07/20 12:30:45;;;;;;;0.35;0.32;;;;;;;;;;5028746;28;20566;-76
2023/07/20 12:33:14;;;;;;;0.40;0.30;;;;;;;;;;5031345;28;20040;-78
2023/07/20 12:35:39;;;;;;;0.40;0.40;;;;;;;;;;5032294;28;20017;-76
2023/07/20 12:38:06;;;;;;;0.63;0.40;;;;;;;;;;5033907;28;20108;-78
2023/07/20 12:40:31;;;;;;;1.15;0.50;;;;;;;;;;5047272;28;20032;-76
2023/07/20 12:42:57;;;;;;;0.30;0.30;;;;;;;;;;5031461;28;20029;-77
2023/07/20 12:45:22;;;;;;;0.82;0.40;;;;;;;;;;5021981;28;20037;-77
2023/07/20 12:47:48;;;;;;;0.60;0.30;;;;;;;;;;5027560;28;20108;-78
2023/07/20 12:50:13;;;;;;;0.40;0.40;;;;;;;;;;5028457;28;20120;-78
2023/07/20 12:52:40;;;;;;;0.30;0.30;;;;;;;;;;5026058;28;20010;-78
2023/07/20 12:55:07;;;;;;;0.40;0.40;;;;;;;;;;5028430;28;20026;-78
2023/07/20 12:57:36;;;;;;;0.22;0.22;;;;;;;;;;5028661;28;20031;-77
2023/07/20 13:00:04;;;;;;;1.08;0.45;;;;;;;;;;5027978;28;20036;-78
2023/07/20 13:02:31;;;;;;;0.68;0.30;;;;;;;;;;5027175;28;20025;-77
2023/07/20 13:04:57;;;;;;;0.45;0.35;;;;;;;;;;5024989;28;20018;-78
2023/07/20 13:07:33;;;;;;;0.50;0.50;;;;;;;;;;5027374;28;20409;-78
2023/07/20 13:10:00;;;;;;;0.85;0.40;;;;;;;;;;5027454;28;20139;-77
2023/07/20 13:12:27;;;;;;;0.43;0.43;;;;;;;;;;5042730;28;20022;-77
2023/07/20 13:14:54;;;;;;;0.32;0.30;;;;;;;;;;5028169;28;20114;-78
2023/07/20 13:17:19;;;;;;;0.50;0.40;;;;;;;;;;5027047;28;20074;-78
2023/07/20 13:19:45;;;;;;;0.50;0.50;;;;;;;;;;5028645;28;20026;-78
2023/07/20 13:22:11;;;;;;;0.38;0.30;;;;;;;;;;5028814;28;20025;-78
2023/07/20 13:24:36;;;;;;;0.98;0.57;;;;;;;;;;5029110;28;20043;-78
2023/07/20 13:27:02;;;;;;;0.32;0.32;;;;;;;;;;5028740;28;20033;-78
2023/07/20 13:29:27;;;;;;;0.38;0.38;;;;;;;;;;5025527;28;20033;-78
2023/07/20 13:31:53;;;;;;;1.15;0.50;;;;;;;;;;5027653;28;20021;-78
2023/07/20 13:34:18;;;;;;;0.50;0.47;;;;;;;;;;5027900;28;20033;-78
2023/07/20 13:36:44;;;;;;;0.70;0.50;;;;;;;;;;5025231;28;20024;-78
2023/07/20 13:39:09;;;;;;;0.60;0.60;;;;;;;;;;5028407;28;20480;-78
2023/07/20 13:41:34;;;;;;;0.43;0.43;;;;;;;;;;5027395;28;20099;-77
2023/07/20 13:44:00;;;;;;;1.02;0.40;;;;;;;;;;5027466;28;20055;-77
2023/07/20 13:46:25;;;;;;;0.65;0.50;;;;;;;;;;5027732;28;20083;-78
2023/07/20 13:48:51;;;;;;;0.40;0.40;;;;;;;;;;5027112;28;20378;-78
2023/07/20 13:51:16;;;;;;;0.63;0.45;;;;;;;;;;5028408;28;20121;-78
2023/07/20 13:53:41;;;;;;;0.73;0.38;;;;;;;;;;5026149;28;20037;-78
2023/07/20 13:56:07;;;;;;;0.63;0.50;;;;;;;;;;5025448;28;20581;-77
2023/07/20 13:58:33;;;;;;;0.50;0.50;;;;;;;;;;5028051;28;20025;-78
2023/07/20 14:00:58;;;;;;;0.50;0.50;;;;;;;;;;5044559;28;20094;-78
2023/07/20 14:03:24;;;;;;;0.40;0.40;;;;;;;;;;5026942;28;20021;-78
2023/07/20 14:05:50;;;;;;;0.57;0.50;;;;;;;;;;5026852;28;20409;-77
2023/07/20 14:08:15;;;;;;;0.40;0.40;;;;;;;;;;5026078;28;20025;-78
2023/07/20 14:10:41;;;;;;;0.50;0.50;;;;;;;;;;5027785;28;20389;-77
2023/07/20 14:13:06;;;;;;;0.93;0.50;;;;;;;;;;5026890;28;20191;-78
2023/07/20 14:15:34;;;;;;;0.40;0.40;;;;;;;;;;5027274;28;20656;-78
2023/07/20 14:17:59;;;;;;;0.40;0.40;;;;;;;;;;5027700;28;20044;-77
2023/07/20 14:20:25;;;;;;;0.30;0.30;;;;;;;;;;5027643;28;20029;-77
2023/07/20 14:22:50;;;;;;;0.82;0.60;;;;;;;;;;5025125;28;20021;-77
2023/07/20 14:25:16;;;;;;;0.40;0.40;;;;;;;;;;5040814;28;20029;-78
2023/07/20 14:27:41;;;;;;;1.35;0.60;;;;;;;;;;5039731;28;20041;-78
2023/07/20 14:30:08;;;;;;;1.45;0.60;;;;;;;;;;5026193;28;20393;-78
2023/07/20 14:32:34;;;;;;;1.02;0.47;;;;;;;;;;5026945;28;20024;-77
2023/07/20 14:35:00;;;;;;;0.65;0.57;;;;;;;;;;5025938;28;20547;-77
2023/07/20 14:37:26;;;;;;;0.75;0.68;;;;;;;;;;5026220;28;20037;-78
2023/07/20 14:39:51;;;;;;;0.50;0.50;;;;;;;;;;5025477;28;20033;-77
2023/07/20 14:42:17;;;;;;;0.45;0.45;;;;;;;;;;5025002;28;20017;-78